createdAt,value
2023-05-12T00:00:43.085Z,4.93
2023-05-12T00:03:10.361Z,4.93
2023-05-12T00:05:37.805Z,4.88
2023-05-12T00:08:05.540Z,4.53
2023-05-12T00:10:32.825Z,5.40
2023-05-12T00:13:00.243Z,4.43
2023-05-12T00:15:27.603Z,5.10
2023-05-12T00:17:54.795Z,5.15
2023-05-12T00:20:22.583Z,4.50
2023-05-12T00:22:49.987Z,5.13
2023-05-12T00:25:17.370Z,5.20
2023-05-12T00:27:44.696Z,4.60
2023-05-12T00:30:12.290Z,5.28
2023-05-12T00:32:39.567Z,5.55
2023-05-12T00:35:07.339Z,6.00
2023-05-12T00:37:34.557Z,5.27
2023-05-12T00:40:01.866Z,5.40
2023-05-12T00:42:29.096Z,5.57
2023-05-12T00:44:56.402Z,5.53
2023-05-12T00:47:23.703Z,5.85
2023-05-12T00:49:51.347Z,4.87
2023-05-12T00:52:18.578Z,5.15
2023-05-12T00:54:45.915Z,5.95
2023-05-12T00:57:13.166Z,5.95
2023-05-12T00:59:40.526Z,5.22
2023-05-12T01:02:08.809Z,5.10
2023-05-12T01:04:38.836Z,5.15
2023-05-12T01:07:19.395Z,5.57
2023-05-12T01:09:47.260Z,4.82
2023-05-12T01:12:15.279Z,5.10
2023-05-12T01:14:43.497Z,4.53
2023-05-12T01:17:13.521Z,5.03
2023-05-12T01:19:52.688Z,5.00
2023-05-12T01:22:20.086Z,5.38
2023-05-12T01:25:00.593Z,4.63
2023-05-12T01:27:30.178Z,5.60
2023-05-12T01:29:59.312Z,5.03
2023-05-12T01:32:27.508Z,5.60
2023-05-12T01:34:55.026Z,5.32
2023-05-12T01:37:23.951Z,6.43
2023-05-12T01:39:51.205Z,5.27
2023-05-12T01:42:20.610Z,5.93
2023-05-12T01:44:48.806Z,5.50
2023-05-12T01:47:16.351Z,5.63
2023-05-12T01:49:50.176Z,6.10
2023-05-12T01:52:17.536Z,5.30
2023-05-12T01:54:44.821Z,5.40
2023-05-12T01:57:13.242Z,5.40
2023-05-12T01:59:40.793Z,5.43
2023-05-12T02:02:08.500Z,5.25
2023-05-12T02:04:35.804Z,6.00
2023-05-12T02:07:03.881Z,5.60
2023-05-12T02:09:31.550Z,5.30
2023-05-12T02:12:02.418Z,5.47
2023-05-12T02:14:29.881Z,5.68
2023-05-12T02:16:57.494Z,5.23
2023-05-12T02:19:26.088Z,5.93
2023-05-12T02:21:53.372Z,5.70
2023-05-12T02:24:22.056Z,5.63
2023-05-12T02:26:49.638Z,4.70
2023-05-12T02:29:16.938Z,4.90
2023-05-12T02:31:44.255Z,4.88
2023-05-12T02:34:16.080Z,4.60
2023-05-12T02:36:43.626Z,5.13
2023-05-12T02:39:12.229Z,5.15
2023-05-12T02:41:39.888Z,4.47
2023-05-12T02:44:07.506Z,4.50
2023-05-12T02:46:35.197Z,4.15
2023-05-12T02:49:02.421Z,4.80
2023-05-12T02:51:30.237Z,4.60
2023-05-12T02:53:57.503Z,4.10
2023-05-12T02:56:24.891Z,4.20
2023-05-12T02:58:53.541Z,4.20
2023-05-12T03:01:21.289Z,4.68
2023-05-12T03:03:48.764Z,4.20
2023-05-12T03:06:16.323Z,3.50
2023-05-12T03:08:43.616Z,4.15
2023-05-12T03:11:10.932Z,4.50
2023-05-12T03:13:38.452Z,3.75
2023-05-12T03:16:06.173Z,4.22
2023-05-12T03:18:33.577Z,3.57
2023-05-12T03:21:00.959Z,4.07
2023-05-12T03:23:28.214Z,3.58
2023-05-12T03:25:56.079Z,3.88
2023-05-12T03:28:24.837Z,3.47
2023-05-12T03:30:52.565Z,4.00
2023-05-12T03:33:19.740Z,3.90
2023-05-12T03:35:47.225Z,4.25
2023-05-12T03:38:14.474Z,3.65
2023-05-12T03:40:41.927Z,3.53
2023-05-12T03:43:09.352Z,3.53
2023-05-12T03:45:36.624Z,3.72
2023-05-12T03:48:04.102Z,3.55
2023-05-12T03:50:31.419Z,3.20
2023-05-12T03:53:00.789Z,3.55
2023-05-12T03:55:28.095Z,3.20
2023-05-12T03:57:55.401Z,3.70
2023-05-12T04:00:22.911Z,3.83
2023-05-12T04:02:51.082Z,4.03
2023-05-12T04:05:18.444Z,3.08
2023-05-12T04:07:45.646Z,3.50
2023-05-12T04:10:13.012Z,3.33
2023-05-12T04:12:40.297Z,3.53
2023-05-12T04:15:09.055Z,3.13
2023-05-12T04:17:36.421Z,3.60
2023-05-12T04:20:04.316Z,3.43
2023-05-12T04:22:31.765Z,3.58
2023-05-12T04:24:59.092Z,3.70
2023-05-12T04:27:26.385Z,2.92
2023-05-12T04:29:53.887Z,3.67
2023-05-12T04:32:21.962Z,3.77
2023-05-12T04:34:49.685Z,3.42
2023-05-12T04:37:16.869Z,3.25
2023-05-12T04:39:44.358Z,3.60
2023-05-12T04:42:11.961Z,3.50
2023-05-12T04:44:40.184Z,3.13
2023-05-12T04:47:07.493Z,3.17
2023-05-12T04:49:34.871Z,3.60
2023-05-12T04:52:02.200Z,3.67
2023-05-12T04:54:29.583Z,4.55
2023-05-12T04:56:56.876Z,4.00
2023-05-12T04:59:24.537Z,4.22
2023-05-12T05:01:53.586Z,3.88
2023-05-12T05:04:21.003Z,3.47
2023-05-12T05:06:48.227Z,4.07
2023-05-12T05:09:15.969Z,3.70
2023-05-12T05:11:43.319Z,4.10
2023-05-12T05:14:11.112Z,3.25
2023-05-12T05:16:39.465Z,3.60
2023-05-12T05:19:12.114Z,3.38
2023-05-12T05:21:48.404Z,3.67
2023-05-12T05:24:16.814Z,3.25
2023-05-12T05:26:44.671Z,2.80
2023-05-12T05:29:12.014Z,3.55
2023-05-12T05:31:39.915Z,3.45
2023-05-12T05:34:07.279Z,3.70
2023-05-12T05:36:34.712Z,3.38
2023-05-12T05:39:02.177Z,2.85
2023-05-12T05:41:30.571Z,3.08
2023-05-12T05:43:57.974Z,3.20
2023-05-12T05:46:26.263Z,3.27
2023-05-12T05:48:53.907Z,3.35
2023-05-12T05:51:21.873Z,3.15
2023-05-12T05:53:50.070Z,3.13
2023-05-12T05:56:18.458Z,3.38
2023-05-12T05:58:45.836Z,3.10
2023-05-12T06:01:13.832Z,3.35
2023-05-12T06:03:41.855Z,3.50
2023-05-12T06:06:09.573Z,3.13
2023-05-12T06:08:43.800Z,3.78
2023-05-12T06:11:17.151Z,3.83
2023-05-12T06:13:46.827Z,3.60
2023-05-12T06:16:18.224Z,3.20
2023-05-12T06:19:01.190Z,3.03
2023-05-12T06:21:33.944Z,3.85
2023-05-12T06:24:03.091Z,3.03
2023-05-12T06:26:31.146Z,3.35
2023-05-12T06:28:58.668Z,3.22
2023-05-12T06:31:32.202Z,3.53
2023-05-12T06:33:59.830Z,3.92
2023-05-12T06:36:27.626Z,3.93
2023-05-12T06:38:55.510Z,3.78
2023-05-12T06:41:25.175Z,3.40
2023-05-12T06:43:53.260Z,2.90
2023-05-12T06:46:29.524Z,3.30
2023-05-12T06:48:58.149Z,3.37
2023-05-12T06:51:28.509Z,3.25
2023-05-12T06:53:55.899Z,3.35
2023-05-12T06:56:24.193Z,3.80
2023-05-12T06:58:52.909Z,4.30
2023-05-12T07:01:20.274Z,4.03
2023-05-12T07:03:47.632Z,3.22
2023-05-12T07:06:14.931Z,2.80
2023-05-12T07:08:42.322Z,4.13
2023-05-12T07:11:09.629Z,4.10
2023-05-12T07:13:38.159Z,4.13
2023-05-12T07:16:05.941Z,4.20
2023-05-12T07:18:33.457Z,4.22
2023-05-12T07:21:00.686Z,4.40
2023-05-12T07:23:28.050Z,4.82
2023-05-12T07:25:58.160Z,4.77
2023-05-12T07:28:25.632Z,4.20
2023-05-12T07:30:52.984Z,4.38
2023-05-12T07:33:20.262Z,3.80
2023-05-12T07:35:48.540Z,3.75
2023-05-12T07:38:16.137Z,3.30
2023-05-12T07:40:44.837Z,3.42
2023-05-12T07:43:12.416Z,3.60
2023-05-12T07:45:39.778Z,3.17
2023-05-12T07:48:07.771Z,3.17
2023-05-12T07:50:35.700Z,3.20
2023-05-12T07:53:03.579Z,3.10
2023-05-12T07:55:31.286Z,3.92
2023-05-12T07:57:58.752Z,3.80
2023-05-12T08:00:26.174Z,3.72
2023-05-12T08:02:54.549Z,2.90
2023-05-12T08:05:22.708Z,2.90
2023-05-12T08:07:53.764Z,3.10
2023-05-12T08:10:30.224Z,2.97
2023-05-12T08:12:59.169Z,3.60
2023-05-12T08:15:33.594Z,3.00
2023-05-12T08:18:01.943Z,2.72
2023-05-12T08:20:32.391Z,3.22
2023-05-12T08:23:01.600Z,3.33
2023-05-12T08:25:32.776Z,3.05
2023-05-12T08:28:04.432Z,2.70
2023-05-12T08:30:36.094Z,3.53
2023-05-12T08:33:04.721Z,3.70
2023-05-12T08:35:32.837Z,3.65
2023-05-12T08:38:01.419Z,3.03
2023-05-12T08:40:30.620Z,3.50
2023-05-12T08:43:24.749Z,3.80
2023-05-12T08:46:07.305Z,3.75
2023-05-12T08:48:35.448Z,3.97
2023-05-12T08:51:03.632Z,4.47
2023-05-12T08:53:31.216Z,3.60
2023-05-12T08:57:09.002Z,4.22
2023-05-12T08:58:46.134Z,4.13
2023-05-12T09:01:15.015Z,4.97
2023-05-12T09:03:42.792Z,4.05
2023-05-12T09:06:11.176Z,4.53
2023-05-12T09:08:39.286Z,4.38
2023-05-12T09:11:06.947Z,4.85
2023-05-12T09:14:00.918Z,4.38
2023-05-12T09:16:32.264Z,4.47
2023-05-12T09:19:01.753Z,4.80
2023-05-12T09:21:29.889Z,3.92
2023-05-12T09:24:05.938Z,4.07
2023-05-12T09:26:57.990Z,4.07
2023-05-12T09:32:02.515Z,3.60
2023-05-12T09:34:41.584Z,3.78
2023-05-12T09:37:09.662Z,4.20
2023-05-12T09:39:41.197Z,4.20
2023-05-12T09:42:12.869Z,4.40
2023-05-12T09:44:41.390Z,4.93
2023-05-12T09:47:10.452Z,5.03
2023-05-12T09:49:38.545Z,5.10
2023-05-12T09:52:06.443Z,3.55
2023-05-12T09:54:34.690Z,4.18
2023-05-12T09:57:06.816Z,4.47
2023-05-12T09:59:36.611Z,4.55
2023-05-12T10:02:07.052Z,4.93
2023-05-12T10:04:59.108Z,4.50
2023-05-12T10:08:01.526Z,5.00
2023-05-12T10:10:48.819Z,5.40
2023-05-12T10:13:35.290Z,4.75
2023-05-12T10:16:02.838Z,6.10
2023-05-12T10:18:30.943Z,4.70
2023-05-12T10:20:58.489Z,5.35
2023-05-12T10:23:28.303Z,5.87
2023-05-12T10:26:02.216Z,5.75
2023-05-12T10:28:29.832Z,6.75
2023-05-12T10:30:58.002Z,6.00
2023-05-12T10:33:28.804Z,6.85
2023-05-12T10:35:56.217Z,6.57
2023-05-12T10:38:24.631Z,6.68
2023-05-12T10:40:54.535Z,5.70
2023-05-12T10:43:23.991Z,5.35
2023-05-12T10:46:27.677Z,5.93
2023-05-12T10:49:03.577Z,5.03
2023-05-12T10:51:43.226Z,5.63
2023-05-12T10:54:11.714Z,5.70
2023-05-12T10:56:40.337Z,6.07
2023-05-12T10:59:19.816Z,6.43
2023-05-12T11:02:06.498Z,6.63
2023-05-12T11:04:47.175Z,6.32
2023-05-12T11:07:27.265Z,7.15
2023-05-12T11:09:58.500Z,9.35
2023-05-12T11:12:32.585Z,8.73
2023-05-12T11:15:01.764Z,7.07
2023-05-12T11:17:29.846Z,10.23
2023-05-12T11:20:01.899Z,8.85
2023-05-12T11:22:33.274Z,7.97
2023-05-12T11:25:09.348Z,10.57
2023-05-12T11:27:42.576Z,10.20
2023-05-12T11:30:11.488Z,8.07
2023-05-12T11:32:43.113Z,8.38
2023-05-12T11:35:18.366Z,6.57
2023-05-12T11:37:50.444Z,7.53
2023-05-12T11:40:19.876Z,7.27
2023-05-12T11:42:53.019Z,7.57
2023-05-12T11:45:30.781Z,7.35
2023-05-12T11:48:12.524Z,7.40
2023-05-12T11:50:41.541Z,7.05
2023-05-12T11:53:15.020Z,6.37
2023-05-12T11:55:54.200Z,6.60
2023-05-12T11:58:27.004Z,7.20
2023-05-12T12:00:54.511Z,6.75
2023-05-12T12:03:22.798Z,6.03
2023-05-12T12:06:01.263Z,7.37
2023-05-12T12:08:28.800Z,6.25
2023-05-12T12:10:56.091Z,5.55
2023-05-12T12:13:25.263Z,6.47
2023-05-12T12:15:52.744Z,6.13
2023-05-12T12:18:20.190Z,6.40
2023-05-12T12:20:49.767Z,7.00
2023-05-12T12:23:17.217Z,6.85
2023-05-12T12:25:44.484Z,7.07
2023-05-12T12:28:12.354Z,7.00
2023-05-12T12:30:39.578Z,6.40
2023-05-12T12:33:07.171Z,7.30
2023-05-12T12:35:34.513Z,6.90
2023-05-12T12:38:01.905Z,7.72
2023-05-12T12:40:29.167Z,6.07
2023-05-12T12:42:57.098Z,6.23
2023-05-12T12:45:25.014Z,6.18
2023-05-12T12:47:54.838Z,6.45
2023-05-12T12:50:24.474Z,6.68
2023-05-12T12:52:53.405Z,6.85
2023-05-12T12:55:20.961Z,6.73
2023-05-12T12:57:49.500Z,6.90
2023-05-12T13:00:20.346Z,6.90
2023-05-12T13:02:47.907Z,7.53
2023-05-12T13:05:19.167Z,6.60
2023-05-12T13:07:47.644Z,6.00
2023-05-12T13:10:15.054Z,6.22
2023-05-12T13:12:42.438Z,5.40
2023-05-12T13:15:10.643Z,4.82
2023-05-12T13:17:38.047Z,6.50
2023-05-12T13:20:05.838Z,7.77
2023-05-12T13:22:33.295Z,5.63
2023-05-12T13:25:00.797Z,6.40
2023-05-12T13:27:28.402Z,5.70
2023-05-12T13:29:55.715Z,5.32
2023-05-12T13:32:23.137Z,4.90
2023-05-12T13:34:50.664Z,5.10
2023-05-12T13:37:18.244Z,5.32
2023-05-12T13:39:45.468Z,5.53
2023-05-12T13:42:12.829Z,5.40
2023-05-12T13:44:40.136Z,5.53
2023-05-12T13:47:10.430Z,5.65
2023-05-12T13:49:38.115Z,5.50
2023-05-12T13:52:05.748Z,5.32
2023-05-12T13:54:33.197Z,5.57
2023-05-12T13:57:04.382Z,4.87
2023-05-12T13:59:31.953Z,4.70
2023-05-12T14:01:59.489Z,5.13
2023-05-12T14:04:26.821Z,5.28
2023-05-12T14:06:54.732Z,5.40
2023-05-12T14:09:22.147Z,4.97
2023-05-12T14:11:49.421Z,4.60
2023-05-12T14:14:18.732Z,5.88
2023-05-12T14:16:45.981Z,5.60
2023-05-12T14:19:13.637Z,6.47
2023-05-12T14:21:44.414Z,6.10
2023-05-12T14:24:11.972Z,5.82
2023-05-12T14:26:39.185Z,5.38
2023-05-12T14:29:08.701Z,5.65
2023-05-12T14:31:36.192Z,6.10
2023-05-12T14:34:04.288Z,6.13
2023-05-12T14:36:32.202Z,6.05
2023-05-12T14:38:59.548Z,6.07
2023-05-12T14:41:26.818Z,5.45
2023-05-12T14:43:54.108Z,5.80
2023-05-12T14:46:21.681Z,6.13
2023-05-12T14:48:49.095Z,5.35
2023-05-12T14:51:16.332Z,6.07
2023-05-12T14:53:43.748Z,6.53
2023-05-12T14:56:11.180Z,6.40
2023-05-12T14:58:38.549Z,6.70
2023-05-12T15:01:08.110Z,6.22
2023-05-12T15:03:36.743Z,6.68
2023-05-12T15:06:07.574Z,7.22
2023-05-12T15:08:35.637Z,5.60
2023-05-12T15:11:02.923Z,6.27
2023-05-12T15:13:30.669Z,6.30
2023-05-12T15:15:57.960Z,6.45
2023-05-12T15:18:25.406Z,5.78
2023-05-12T15:20:52.729Z,6.50
2023-05-12T15:23:20.058Z,6.10
2023-05-12T15:25:47.347Z,6.53
2023-05-12T15:28:14.683Z,7.47
2023-05-12T15:30:42.016Z,7.65
2023-05-12T15:33:10.307Z,7.07
2023-05-12T15:35:37.785Z,6.97
2023-05-12T15:38:05.161Z,7.13
2023-05-12T15:40:32.422Z,8.40
2023-05-12T15:42:59.678Z,7.70
2023-05-12T15:45:26.908Z,6.95
2023-05-12T15:47:54.422Z,6.57
2023-05-12T15:50:22.921Z,6.80
2023-05-12T15:52:50.844Z,6.05
2023-05-12T15:55:18.405Z,7.47
2023-05-12T15:57:45.730Z,7.07
2023-05-12T16:00:13.549Z,7.17
2023-05-12T16:02:41.048Z,6.95
2023-05-12T16:05:09.706Z,6.25
2023-05-12T16:07:37.173Z,7.65
2023-05-12T16:10:05.470Z,8.45
2023-05-12T16:12:32.842Z,8.57
2023-05-12T16:15:00.269Z,8.38
2023-05-12T16:17:27.944Z,8.50
2023-05-12T16:19:57.075Z,8.88
2023-05-12T16:22:24.467Z,9.80
2023-05-12T16:24:53.822Z,10.00
2023-05-12T16:27:21.239Z,8.82
2023-05-12T16:29:49.670Z,9.77
2023-05-12T16:32:17.611Z,8.32
2023-05-12T16:34:45.006Z,7.82
2023-05-12T16:37:12.356Z,8.10
2023-05-12T16:39:39.882Z,7.38
2023-05-12T16:42:07.573Z,8.15
2023-05-12T16:44:34.860Z,8.48
2023-05-12T16:47:02.242Z,8.88
2023-05-12T16:49:29.557Z,7.37
2023-05-12T16:51:56.886Z,8.07
2023-05-12T16:54:24.387Z,7.70
2023-05-12T16:56:51.942Z,7.85
2023-05-12T16:59:19.207Z,9.27
2023-05-12T17:01:47.162Z,7.80
2023-05-12T17:04:15.496Z,7.72
2023-05-12T17:06:43.298Z,8.95
2023-05-12T17:09:10.588Z,8.27
2023-05-12T17:11:38.122Z,8.68
2023-05-12T17:14:05.414Z,8.40
2023-05-12T17:16:32.873Z,8.27
2023-05-12T17:21:30.894Z,8.57
2023-05-12T17:23:58.461Z,8.20
2023-05-12T17:26:27.976Z,8.30
2023-05-12T17:28:55.682Z,8.20
2023-05-12T17:31:23.080Z,7.57
2023-05-12T17:33:50.438Z,7.75
2023-05-12T17:36:18.705Z,7.90
2023-05-12T17:38:46.377Z,8.40
2023-05-12T17:41:13.790Z,8.38
2023-05-12T17:43:41.472Z,7.97
2023-05-12T17:46:09.278Z,8.27
2023-05-12T17:48:38.508Z,8.60
2023-05-12T17:51:06.164Z,5.50
2023-05-12T17:53:33.508Z,7.40
2023-05-12T17:56:01.433Z,8.18
2023-05-12T17:58:28.749Z,8.68
2023-05-12T18:00:56.288Z,8.40
2023-05-12T18:03:23.918Z,7.90
2023-05-12T18:05:52.694Z,8.77
2023-05-12T18:08:20.128Z,8.98
2023-05-12T18:10:47.507Z,7.78
2023-05-12T18:13:15.585Z,7.57
2023-05-12T18:15:43.126Z,7.47
2023-05-12T18:18:10.813Z,8.63
2023-05-12T18:20:38.408Z,8.48
2023-05-12T18:23:05.748Z,8.40
2023-05-12T18:25:33.062Z,7.78
2023-05-12T18:28:00.338Z,7.10
2023-05-12T18:30:27.632Z,6.55
2023-05-12T18:32:54.920Z,7.03
2023-05-12T18:35:22.653Z,6.93
2023-05-12T18:37:50.203Z,6.57
2023-05-12T18:40:17.712Z,6.57
2023-05-12T18:42:45.017Z,6.85
2023-05-12T18:45:12.716Z,6.57
2023-05-12T18:47:40.107Z,6.82
2023-05-12T18:50:07.995Z,7.53
2023-05-12T18:52:35.960Z,6.00
2023-05-12T18:55:03.405Z,6.80
2023-05-12T18:57:30.709Z,5.82
2023-05-12T18:59:58.080Z,6.03
2023-05-12T19:02:25.468Z,6.10
2023-05-12T19:04:53.472Z,6.63
2023-05-12T19:07:20.855Z,5.25
2023-05-12T19:09:48.191Z,6.63
2023-05-12T19:12:15.743Z,6.68
2023-05-12T19:14:43.331Z,7.05
2023-05-12T19:17:10.868Z,7.37
2023-05-12T19:19:38.461Z,6.32
2023-05-12T19:22:05.754Z,7.18
2023-05-12T19:24:33.183Z,6.82
2023-05-12T19:27:00.508Z,6.97
2023-05-12T19:29:27.995Z,7.10
2023-05-12T19:31:55.401Z,6.78
2023-05-12T19:34:23.945Z,8.00
2023-05-12T19:36:51.672Z,7.75
2023-05-12T19:39:18.919Z,7.63
2023-05-12T19:41:46.357Z,7.87
2023-05-12T19:44:13.685Z,7.25
2023-05-12T19:46:40.907Z,8.23
2023-05-12T19:49:08.208Z,7.78
2023-05-12T19:51:35.553Z,8.43
2023-05-12T19:54:04.847Z,8.37
2023-05-12T19:56:32.512Z,8.60
2023-05-12T19:58:59.960Z,9.88
2023-05-12T20:01:27.222Z,9.15
2023-05-12T20:03:54.514Z,9.20
2023-05-12T20:06:22.508Z,9.27
2023-05-12T20:08:49.748Z,10.38
2023-05-12T20:11:16.997Z,9.75
2023-05-12T20:13:44.371Z,9.43
2023-05-12T20:16:11.846Z,10.88
2023-05-12T20:18:39.215Z,9.67
2023-05-12T20:21:06.424Z,10.50
2023-05-12T20:23:33.810Z,10.05
2023-05-12T20:26:01.037Z,9.32
2023-05-12T20:28:29.242Z,9.73
2023-05-12T20:30:56.576Z,9.67
2023-05-12T20:33:23.986Z,8.80
2023-05-12T20:35:51.259Z,9.70
2023-05-12T20:38:18.527Z,9.52
2023-05-12T20:40:45.881Z,8.70
2023-05-12T20:43:14.535Z,8.70
2023-05-12T20:45:42.572Z,8.40
2023-05-12T20:48:09.982Z,9.05
2023-05-12T20:50:37.321Z,8.50
2023-05-12T20:53:04.983Z,8.68
2023-05-12T20:55:34.956Z,8.83
2023-05-12T20:58:02.202Z,8.20
2023-05-12T21:00:29.380Z,9.20
2023-05-12T21:02:58.050Z,8.48
2023-05-12T21:05:25.726Z,8.68
2023-05-12T21:07:52.981Z,8.07
2023-05-12T21:10:20.837Z,8.93
2023-05-12T21:12:48.483Z,9.07
2023-05-12T21:15:15.849Z,8.57
2023-05-12T21:17:43.118Z,8.80
2023-05-12T21:20:11.962Z,8.37
2023-05-12T21:22:40.808Z,8.18
2023-05-12T21:25:08.593Z,8.20
2023-05-12T21:27:40.726Z,8.25
2023-05-12T21:30:09.385Z,8.40
2023-05-12T21:32:36.747Z,8.53
2023-05-12T21:35:04.976Z,8.60
2023-05-12T21:37:32.222Z,9.02
2023-05-12T21:40:04.931Z,8.82
2023-05-12T21:42:32.272Z,8.90
2023-05-12T21:44:59.525Z,8.53
2023-05-12T21:47:26.949Z,9.00
2023-05-12T21:49:55.026Z,9.20
2023-05-12T21:52:22.585Z,9.35
2023-05-12T21:54:49.800Z,9.07
2023-05-12T21:57:17.165Z,9.17
2023-05-12T21:59:44.764Z,8.40
2023-05-12T22:02:12.093Z,9.15
2023-05-12T22:04:39.394Z,9.13
2023-05-12T22:07:07.845Z,9.23
2023-05-12T22:09:35.312Z,9.97
2023-05-12T22:12:02.584Z,9.98
2023-05-12T22:14:29.866Z,10.57
2023-05-12T22:16:57.821Z,11.05
2023-05-12T22:19:25.218Z,10.77
2023-05-12T22:21:53.137Z,9.80
2023-05-12T22:24:20.407Z,10.70
2023-05-12T22:26:47.672Z,11.68
2023-05-12T22:29:14.914Z,11.48
2023-05-12T22:31:42.636Z,12.18
2023-05-12T22:34:10.006Z,11.73
2023-05-12T22:36:37.299Z,11.65
2023-05-12T22:39:04.553Z,10.98
2023-05-12T22:41:31.872Z,10.30
2023-05-12T22:43:59.159Z,11.35
2023-05-12T22:46:26.513Z,10.50
2023-05-12T22:48:53.835Z,11.43
2023-05-12T22:51:21.286Z,10.35
2023-05-12T22:53:48.490Z,11.50
2023-05-12T22:56:15.897Z,11.00
2023-05-12T22:58:43.129Z,11.23
2023-05-12T23:01:10.523Z,11.50
2023-05-12T23:03:37.846Z,11.18
2023-05-12T23:06:05.535Z,10.90
2023-05-12T23:08:32.800Z,12.13
2023-05-12T23:11:00.125Z,11.80
2023-05-12T23:13:27.364Z,12.55
2023-05-12T23:15:54.723Z,11.85
2023-05-12T23:18:21.992Z,11.93
2023-05-12T23:20:49.245Z,12.30
2023-05-12T23:23:16.492Z,11.90
2023-05-12T23:25:43.832Z,10.93
2023-05-12T23:28:11.061Z,12.52
2023-05-12T23:30:39.576Z,12.25
2023-05-12T23:33:06.908Z,12.30
2023-05-12T23:35:34.284Z,12.43
2023-05-12T23:38:01.470Z,12.32
2023-05-12T23:40:28.791Z,12.07
2023-05-12T23:42:55.997Z,11.75
2023-05-12T23:45:23.254Z,10.98
2023-05-12T23:47:50.619Z,11.77
2023-05-12T23:50:17.938Z,11.90
2023-05-12T23:52:45.135Z,11.30
2023-05-12T23:55:12.470Z,12.65
2023-05-12T23:57:39.619Z,11.05
